createdAt,value
2019-04-07T00:01:35.434Z,99.90
2019-04-07T00:04:05.643Z,99.90
2019-04-07T00:06:35.036Z,99.90
2019-04-07T00:09:06.057Z,99.90
2019-04-07T00:11:36.708Z,99.90
2019-04-07T00:14:04.081Z,99.90
2019-04-07T00:16:31.522Z,99.90
2019-04-07T00:19:00.403Z,99.90
2019-04-07T00:21:28.066Z,99.90
2019-04-07T00:23:57.987Z,99.90
2019-04-07T00:26:25.306Z,99.90
2019-04-07T00:28:53.152Z,99.90
2019-04-07T00:31:24.210Z,99.90
2019-04-07T00:33:53.894Z,99.90
2019-04-07T00:36:23.625Z,99.90
2019-04-07T00:38:51.918Z,99.90
2019-04-07T00:41:20.986Z,99.90
2019-04-07T00:43:50.569Z,99.90
2019-04-07T00:46:21.841Z,99.90
2019-04-07T00:48:52.964Z,99.90
2019-04-07T00:51:22.171Z,99.90
2019-04-07T00:53:49.773Z,99.90
2019-04-07T00:56:18.303Z,99.90
2019-04-07T00:58:48.751Z,99.90
2019-04-07T01:01:22.849Z,99.90
2019-04-07T01:03:50.371Z,99.90
2019-04-07T01:06:17.846Z,99.90
2019-04-07T01:08:49.050Z,99.90
2019-04-07T01:11:18.972Z,99.90
2019-04-07T01:13:46.570Z,99.90
2019-04-07T01:16:14.605Z,99.90
2019-04-07T01:18:44.805Z,99.90
2019-04-07T01:21:14.968Z,99.90
2019-04-07T01:23:42.791Z,99.90
2019-04-07T01:26:11.174Z,99.90
2019-04-07T01:28:40.733Z,99.90
2019-04-07T01:31:12.232Z,99.90
2019-04-07T01:33:42.341Z,99.90
2019-04-07T01:36:13.793Z,99.90
2019-04-07T01:38:44.476Z,99.90
2019-04-07T01:41:21.724Z,99.90
2019-04-07T01:44:03.532Z,99.90
2019-04-07T01:46:55.989Z,99.90
2019-04-07T01:49:30.242Z,99.90
2019-04-07T01:52:10.846Z,99.90
2019-04-07T01:55:14.646Z,99.90
2019-04-07T01:58:08.235Z,99.90
2019-04-07T02:00:53.422Z,99.90
2019-04-07T02:03:44.548Z,99.90
2019-04-07T02:06:26.591Z,99.90
2019-04-07T02:09:00.825Z,99.90
2019-04-07T02:12:04.800Z,99.90
2019-04-07T02:14:43.521Z,99.90
2019-04-07T02:17:36.516Z,99.90
2019-04-07T02:20:12.526Z,99.90
2019-04-07T02:23:03.234Z,99.90
2019-04-07T02:25:47.263Z,99.90
2019-04-07T02:28:38.497Z,99.90
2019-04-07T02:31:23.483Z,99.90
2019-04-07T02:34:00.589Z,99.90
2019-04-07T02:36:38.774Z,99.90
2019-04-07T02:39:29.771Z,99.90
2019-04-07T02:42:15.250Z,99.90
2019-04-07T02:45:01.390Z,99.90
2019-04-07T02:48:01.173Z,99.90
2019-04-07T02:50:53.269Z,99.90
2019-04-07T02:53:28.844Z,99.90
2019-04-07T02:56:13.327Z,99.90
2019-04-07T02:58:51.487Z,99.90
2019-04-07T03:01:28.143Z,99.90
2019-04-07T03:04:22.907Z,99.90
2019-04-07T03:07:10.037Z,99.90
2019-04-07T03:10:03.066Z,99.90
2019-04-07T03:13:09.222Z,99.90
2019-04-07T03:15:46.241Z,99.90
2019-04-07T03:18:40.464Z,99.90
2019-04-07T03:21:23.162Z,99.90
2019-04-07T03:24:17.190Z,99.90
2019-04-07T03:27:10.032Z,99.90
2019-04-07T03:30:04.129Z,99.90
2019-04-07T03:32:46.770Z,99.90
2019-04-07T03:35:40.296Z,99.90
2019-04-07T03:38:28.766Z,99.90
2019-04-07T03:41:25.703Z,99.90
2019-04-07T03:44:03.318Z,99.90
2019-04-07T03:46:45.788Z,99.90
2019-04-07T03:49:38.103Z,99.90
2019-04-07T03:52:43.284Z,99.90
2019-04-07T03:55:17.178Z,99.90
2019-04-07T03:58:05.319Z,99.90
2019-04-07T04:01:35.628Z,99.90
2019-04-07T04:04:24.922Z,99.90
2019-04-07T04:07:22.592Z,99.90
2019-04-07T04:09:51.800Z,99.90
2019-04-07T04:12:34.234Z,99.90
2019-04-07T04:15:08.946Z,99.90
2019-04-07T04:17:37.933Z,99.90
2019-04-07T04:20:06.226Z,99.90
2019-04-07T04:22:33.989Z,99.90
2019-04-07T04:25:05.037Z,99.90
2019-04-07T04:27:33.188Z,99.90
2019-04-07T04:30:00.976Z,99.90
2019-04-07T04:32:30.935Z,99.90
2019-04-07T04:35:03.322Z,99.90
2019-04-07T04:37:41.985Z,99.90
2019-04-07T04:40:05.107Z,99.90
2019-04-07T04:42:33.748Z,99.90
2019-04-07T04:45:02.444Z,99.90
2019-04-07T04:47:30.933Z,99.90
2019-04-07T04:49:59.868Z,99.90
2019-04-07T04:52:27.742Z,99.90
2019-04-07T04:54:55.297Z,99.90
2019-04-07T04:57:27.118Z,99.90
2019-04-07T04:59:56.475Z,99.90
2019-04-07T05:02:25.724Z,99.90
2019-04-07T05:04:52.888Z,99.90
2019-04-07T05:07:24.414Z,99.90
2019-04-07T05:09:53.997Z,99.90
2019-04-07T05:12:20.947Z,99.90
2019-04-07T05:14:49.084Z,99.90
2019-04-07T05:17:19.085Z,99.90
2019-04-07T05:19:46.581Z,99.90
2019-04-07T05:22:15.206Z,99.90
2019-04-07T05:24:45.518Z,99.90
2019-04-07T05:27:13.994Z,99.90
2019-04-07T05:29:41.312Z,99.90
2019-04-07T05:32:09.559Z,99.90
2019-04-07T05:34:40.184Z,99.90
2019-04-07T05:37:10.013Z,99.90
2019-04-07T05:39:37.223Z,99.90
2019-04-07T05:42:04.707Z,99.90
2019-04-07T05:44:35.611Z,99.90
2019-04-07T05:47:06.049Z,99.90
2019-04-07T05:49:34.575Z,99.90
2019-04-07T05:52:05.528Z,99.90
2019-04-07T05:54:34.076Z,99.90
2019-04-07T05:57:01.594Z,99.90
2019-04-07T05:59:30.300Z,99.90
2019-04-07T06:02:01.534Z,99.90
2019-04-07T06:04:28.351Z,99.90
2019-04-07T06:06:56.543Z,99.90
2019-04-07T06:09:24.310Z,99.90
2019-04-07T06:11:52.211Z,99.90
2019-04-07T06:14:21.436Z,99.90
2019-04-07T06:16:53.517Z,99.90
2019-04-07T06:19:19.196Z,99.90
2019-04-07T06:21:48.707Z,99.90
2019-04-07T06:24:17.142Z,99.90
2019-04-07T06:26:49.160Z,99.90
2019-04-07T06:29:18.229Z,99.90
2019-04-07T06:31:47.096Z,99.90
2019-04-07T06:34:14.553Z,99.90
2019-04-07T06:36:44.174Z,99.90
2019-04-07T06:39:13.557Z,99.90
2019-04-07T06:41:42.199Z,99.90
2019-04-07T06:44:15.863Z,99.90
2019-04-07T06:47:04.562Z,99.90
2019-04-07T06:49:46.290Z,99.90
2019-04-07T06:52:28.561Z,99.90
2019-04-07T06:55:33.048Z,99.90
2019-04-07T06:58:40.833Z,99.90
2019-04-07T07:01:26.594Z,99.90
2019-04-07T07:04:18.314Z,99.90
2019-04-07T07:06:58.930Z,99.90
2019-04-07T07:09:38.599Z,99.90
2019-04-07T07:12:34.933Z,99.90
2019-04-07T07:15:19.118Z,99.90
2019-04-07T07:18:04.619Z,99.90
2019-04-07T07:20:46.194Z,99.90
2019-04-07T07:23:18.692Z,99.90
2019-04-07T07:25:46.492Z,99.90
2019-04-07T07:28:14.097Z,99.90
2019-04-07T07:30:41.575Z,99.90
2019-04-07T07:33:13.625Z,99.90
2019-04-07T07:35:45.532Z,99.90
2019-04-07T07:38:12.721Z,99.90
2019-04-07T07:40:41.895Z,99.90
2019-04-07T07:43:10.166Z,99.90
2019-04-07T07:45:42.955Z,99.90
2019-04-07T07:48:12.746Z,99.90
2019-04-07T07:50:42.476Z,99.90
2019-04-07T07:53:10.526Z,99.90
2019-04-07T07:55:38.589Z,99.90
2019-04-07T07:58:08.406Z,99.90
2019-04-07T08:00:40.549Z,99.90
2019-04-07T08:03:07.096Z,99.90
2019-04-07T08:05:35.126Z,99.90
2019-04-07T08:08:03.584Z,99.90
2019-04-07T08:10:31.285Z,99.90
2019-04-07T08:12:59.666Z,99.90
2019-04-07T08:15:31.819Z,99.90
2019-04-07T08:17:57.246Z,99.90
2019-04-07T08:20:24.623Z,99.90
2019-04-07T08:22:52.118Z,99.90
2019-04-07T08:25:22.566Z,99.90
2019-04-07T08:27:49.848Z,99.90
2019-04-07T08:30:18.420Z,99.90
2019-04-07T08:32:46.583Z,99.90
2019-04-07T08:35:14.332Z,99.90
2019-04-07T08:37:45.808Z,99.90
2019-04-07T08:40:11.927Z,99.90
2019-04-07T08:42:40.151Z,99.90
2019-04-07T08:45:09.426Z,99.90
2019-04-07T08:47:36.930Z,99.90
2019-04-07T08:50:04.568Z,99.90
2019-04-07T08:52:32.217Z,99.90
2019-04-07T08:54:59.907Z,99.90
2019-04-07T08:57:30.546Z,99.90
2019-04-07T08:59:57.573Z,99.90
2019-04-07T09:02:26.904Z,99.90
2019-04-07T09:04:54.645Z,99.90
2019-04-07T09:07:24.623Z,99.90
2019-04-07T09:09:52.111Z,99.90
2019-04-07T09:12:20.615Z,99.90
2019-04-07T09:14:48.103Z,99.90
2019-04-07T09:17:32.193Z,99.90
2019-04-07T09:20:22.289Z,99.90
2019-04-07T09:23:03.040Z,99.90
2019-04-07T09:25:51.199Z,99.90
2019-04-07T09:28:44.340Z,99.90
2019-04-07T09:31:33.934Z,99.90
2019-04-07T09:34:28.034Z,99.90
2019-04-07T09:37:20.791Z,99.90
2019-04-07T09:40:05.341Z,99.90
2019-04-07T09:42:50.863Z,99.90
2019-04-07T09:45:39.360Z,99.90
2019-04-07T09:48:23.277Z,99.90
2019-04-07T09:51:10.073Z,99.90
2019-04-07T09:54:00.796Z,99.90
2019-04-07T09:56:48.186Z,99.90
2019-04-07T09:59:33.945Z,99.90
2019-04-07T10:02:10.364Z,99.90
2019-04-07T10:04:56.191Z,99.90
2019-04-07T10:07:58.884Z,99.90
2019-04-07T10:10:44.332Z,99.90
2019-04-07T10:13:27.538Z,99.90
2019-04-07T10:16:07.848Z,99.90
2019-04-07T10:18:59.212Z,99.90
2019-04-07T10:21:45.690Z,99.90
2019-04-07T10:24:31.423Z,99.90
2019-04-07T10:27:33.971Z,99.90
2019-04-07T10:30:11.147Z,99.90
2019-04-07T10:32:56.253Z,99.90
2019-04-07T10:35:32.761Z,99.90
2019-04-07T10:38:12.588Z,99.90
2019-04-07T10:40:49.143Z,99.90
2019-04-07T10:43:28.165Z,99.90
2019-04-07T10:46:18.772Z,99.90
2019-04-07T10:49:16.951Z,99.90
2019-04-07T10:51:58.011Z,99.90
2019-04-07T10:54:39.412Z,99.90
2019-04-07T10:57:45.435Z,99.90
2019-04-07T11:00:31.554Z,99.90
2019-04-07T11:03:07.162Z,99.90
2019-04-07T11:06:01.709Z,99.90
2019-04-07T11:08:52.605Z,99.90
2019-04-07T11:11:41.192Z,99.90
2019-04-07T11:14:25.171Z,99.90
2019-04-07T11:17:16.251Z,99.90
2019-04-07T11:20:06.823Z,99.90
2019-04-07T11:23:11.974Z,99.90
2019-04-07T11:26:00.583Z,99.90
2019-04-07T11:28:37.917Z,99.90
2019-04-07T11:31:16.904Z,99.90
2019-04-07T11:34:06.283Z,99.90
2019-04-07T11:36:54.395Z,99.90
2019-04-07T11:39:44.659Z,99.90
2019-04-07T11:42:30.639Z,99.90
2019-04-07T11:45:08.280Z,99.90
2019-04-07T11:48:08.449Z,99.90
2019-04-07T11:50:50.617Z,99.90
2019-04-07T11:53:34.090Z,99.90
2019-04-07T11:56:36.027Z,99.90
2019-04-07T11:59:22.067Z,99.90
2019-04-07T12:02:13.715Z,99.90
2019-04-07T12:04:59.985Z,99.90
2019-04-07T12:07:47.782Z,99.90
2019-04-07T12:10:53.067Z,99.90
2019-04-07T12:13:28.672Z,99.90
2019-04-07T12:16:09.168Z,99.90
2019-04-07T12:18:55.543Z,99.90
2019-04-07T12:21:32.872Z,99.90
2019-04-07T12:24:24.658Z,99.90
2019-04-07T12:27:00.691Z,99.90
2019-04-07T12:29:42.804Z,99.90
2019-04-07T12:32:28.010Z,99.90
2019-04-07T12:35:15.596Z,99.90
2019-04-07T12:38:21.090Z,99.90
2019-04-07T12:41:12.529Z,99.90
2019-04-07T12:43:37.330Z,99.90
2019-04-07T12:46:36.621Z,99.90
2019-04-07T12:49:34.382Z,99.90
2019-04-07T12:52:20.604Z,99.90
2019-04-07T12:55:08.618Z,99.90
2019-04-07T12:57:57.979Z,99.90
2019-04-07T13:00:53.092Z,99.90
2019-04-07T13:03:21.187Z,99.90
2019-04-07T13:06:17.840Z,99.90
2019-04-07T13:09:04.844Z,99.90
2019-04-07T13:11:52.801Z,99.90
2019-04-07T13:14:40.200Z,99.90
2019-04-07T13:17:36.737Z,99.90
2019-04-07T13:20:30.113Z,99.90
2019-04-07T13:23:05.906Z,99.90
2019-04-07T13:25:42.898Z,99.90
2019-04-07T13:28:21.784Z,99.80
2019-04-07T13:31:07.337Z,99.90
2019-04-07T13:34:03.107Z,99.90
2019-04-07T13:36:54.399Z,99.70
2019-04-07T13:39:47.071Z,99.50
2019-04-07T13:42:34.442Z,99.00
2019-04-07T13:45:24.786Z,99.10
2019-04-07T13:48:27.368Z,99.10
2019-04-07T13:51:06.384Z,98.80
2019-04-07T13:53:52.704Z,98.60
2019-04-07T13:56:53.184Z,98.60
2019-04-07T13:59:32.712Z,98.20
2019-04-07T14:02:09.586Z,98.30
2019-04-07T14:05:00.985Z,98.80
2019-04-07T14:08:01.122Z,99.20
2019-04-07T14:10:42.851Z,98.00
2019-04-07T14:13:24.521Z,98.80
2019-04-07T14:16:05.822Z,97.40
2019-04-07T14:18:44.492Z,96.30
2019-04-07T14:21:26.362Z,96.00
2019-04-07T14:24:13.386Z,96.10
2019-04-07T14:27:04.380Z,96.20
2019-04-07T14:30:09.907Z,96.60
2019-04-07T14:33:03.494Z,95.70
2019-04-07T14:35:46.429Z,96.20
2019-04-07T14:38:29.005Z,96.00
2019-04-07T14:41:06.369Z,97.20
2019-04-07T14:43:40.949Z,96.80
2019-04-07T14:46:34.841Z,96.70
2019-04-07T14:49:30.482Z,97.40
2019-04-07T14:52:21.006Z,96.90
2019-04-07T14:55:00.288Z,96.30
2019-04-07T14:57:39.041Z,95.00
2019-04-07T15:00:28.127Z,95.10
2019-04-07T15:02:56.496Z,95.50
2019-04-07T15:05:32.740Z,96.10
2019-04-07T15:08:33.189Z,95.70
2019-04-07T15:11:16.781Z,95.10
2019-04-07T15:13:46.122Z,94.80
2019-04-07T15:16:13.877Z,95.40
2019-04-07T15:18:42.178Z,94.90
2019-04-07T15:21:09.914Z,95.40
2019-04-07T15:23:37.924Z,95.40
2019-04-07T15:26:05.588Z,95.20
2019-04-07T15:28:33.971Z,95.60
2019-04-07T15:31:04.226Z,95.30
2019-04-07T15:33:33.992Z,94.90
2019-04-07T15:36:00.986Z,95.20
2019-04-07T15:38:31.291Z,95.10
2019-04-07T15:40:59.905Z,94.70
2019-04-07T15:43:28.961Z,94.50
2019-04-07T15:45:58.691Z,94.50
2019-04-07T15:48:27.146Z,94.80
2019-04-07T15:50:54.606Z,94.50
2019-04-07T15:53:22.075Z,94.50
2019-04-07T15:55:56.648Z,95.10
2019-04-07T15:58:18.474Z,95.10
2019-04-07T16:00:48.588Z,94.50
2019-04-07T16:03:16.939Z,94.70
2019-04-07T16:05:46.340Z,95.00
2019-04-07T16:08:16.109Z,94.60
2019-04-07T16:10:45.170Z,95.00
2019-04-07T16:13:12.914Z,95.30
2019-04-07T16:15:42.859Z,95.30
2019-04-07T16:18:10.506Z,95.30
2019-04-07T16:20:41.418Z,95.90
2019-04-07T16:23:08.917Z,95.70
2019-04-07T16:25:36.799Z,95.90
2019-04-07T16:28:09.097Z,96.10
2019-04-07T16:30:36.097Z,96.70
2019-04-07T16:33:05.456Z,97.20
2019-04-07T16:35:32.530Z,96.90
2019-04-07T16:38:00.431Z,97.30
2019-04-07T16:40:30.060Z,98.00
2019-04-07T16:43:07.698Z,97.10
2019-04-07T16:45:28.278Z,97.40
2019-04-07T16:47:57.666Z,97.60
2019-04-07T16:50:25.795Z,97.70
2019-04-07T16:52:53.278Z,97.40
2019-04-07T16:55:41.545Z,97.70
2019-04-07T16:58:09.729Z,98.10
2019-04-07T17:00:38.201Z,98.70
2019-04-07T17:03:08.477Z,99.10
2019-04-07T17:05:36.417Z,99.50
2019-04-07T17:08:04.237Z,99.70
2019-04-07T17:10:34.145Z,99.50
2019-04-07T17:13:13.859Z,99.50
2019-04-07T17:15:31.696Z,99.30
2019-04-07T17:18:00.373Z,99.30
2019-04-07T17:20:33.321Z,99.60
2019-04-07T17:22:59.189Z,99.80
2019-04-07T17:25:26.900Z,99.90
2019-04-07T17:27:56.029Z,99.90
2019-04-07T17:30:26.218Z,99.90
2019-04-07T17:32:54.619Z,99.90
2019-04-07T17:35:22.051Z,99.90
2019-04-07T17:37:49.830Z,99.90
2019-04-07T17:40:18.980Z,99.90
2019-04-07T17:42:50.921Z,99.90
2019-04-07T17:45:35.485Z,99.90
2019-04-07T17:48:25.567Z,99.90
2019-04-07T17:51:09.978Z,99.90
2019-04-07T17:53:55.115Z,99.90
2019-04-07T17:56:48.501Z,99.90
2019-04-07T17:59:37.777Z,99.90
2019-04-07T18:02:26.043Z,99.90
2019-04-07T18:05:16.956Z,99.90
2019-04-07T18:08:14.782Z,99.90
2019-04-07T18:11:02.333Z,99.90
2019-04-07T18:14:00.563Z,99.90
2019-04-07T18:16:36.478Z,99.90
2019-04-07T18:19:38.416Z,99.90
2019-04-07T18:22:22.149Z,99.90
2019-04-07T18:24:55.213Z,99.90
2019-04-07T18:27:32.901Z,99.90
2019-04-07T18:30:08.672Z,99.90
2019-04-07T18:32:54.341Z,99.90
2019-04-07T18:35:52.154Z,99.90
2019-04-07T18:38:45.054Z,99.90
2019-04-07T18:41:40.388Z,99.90
2019-04-07T18:44:38.409Z,99.90
2019-04-07T18:47:15.002Z,99.90
2019-04-07T18:50:16.604Z,99.90
2019-04-07T18:53:12.811Z,99.90
2019-04-07T18:55:59.074Z,99.90
2019-04-07T18:58:48.714Z,99.90
2019-04-07T19:01:30.151Z,99.90
2019-04-07T19:04:24.210Z,99.90
2019-04-07T19:07:05.857Z,99.90
2019-04-07T19:09:43.725Z,99.90
2019-04-07T19:12:34.352Z,99.90
2019-04-07T19:15:25.558Z,99.90
2019-04-07T19:18:19.094Z,99.90
2019-04-07T19:21:00.997Z,99.90
2019-04-07T19:23:53.938Z,99.90
2019-04-07T19:27:12.003Z,99.90
2019-04-07T19:29:48.800Z,99.90
2019-04-07T19:32:27.138Z,99.90
2019-04-07T19:35:18.596Z,99.90
2019-04-07T19:38:04.801Z,99.90
2019-04-07T19:40:51.169Z,99.90
2019-04-07T19:43:43.728Z,99.90
2019-04-07T19:46:29.461Z,99.90
2019-04-07T19:49:23.346Z,99.90
2019-04-07T19:52:17.684Z,99.90
2019-04-07T19:55:05.840Z,99.90
2019-04-07T19:58:02.739Z,99.90
2019-04-07T20:00:41.485Z,99.90
2019-04-07T20:03:22.762Z,99.90
2019-04-07T20:06:13.167Z,99.90
2019-04-07T20:08:49.621Z,99.90
2019-04-07T20:11:43.741Z,99.90
2019-04-07T20:14:30.702Z,99.90
2019-04-07T20:17:21.000Z,99.90
2019-04-07T20:20:08.724Z,99.90
2019-04-07T20:22:43.961Z,99.90
2019-04-07T20:25:31.160Z,99.90
2019-04-07T20:28:10.928Z,99.90
2019-04-07T20:31:19.435Z,99.90
2019-04-07T20:34:02.195Z,99.90
2019-04-07T20:36:34.484Z,99.90
2019-04-07T20:39:23.578Z,99.90
2019-04-07T20:42:05.845Z,99.90
2019-04-07T20:45:00.002Z,99.90
2019-04-07T20:47:42.430Z,99.90
2019-04-07T20:50:48.460Z,99.90
2019-04-07T20:53:33.774Z,99.90
2019-04-07T20:56:18.573Z,99.90
2019-04-07T20:59:04.272Z,99.90
2019-04-07T21:02:01.635Z,99.90
2019-04-07T21:04:38.375Z,99.90
2019-04-07T21:07:23.515Z,99.90
2019-04-07T21:10:08.544Z,99.90
2019-04-07T21:12:57.347Z,99.90
2019-04-07T21:15:45.297Z,99.90
2019-04-07T21:18:23.347Z,99.90
2019-04-07T21:21:13.860Z,99.90
2019-04-07T21:24:01.595Z,99.90
2019-04-07T21:26:52.002Z,99.90
2019-04-07T21:29:30.159Z,99.90
2019-04-07T21:32:10.007Z,99.90
2019-04-07T21:35:00.362Z,99.90
2019-04-07T21:37:44.741Z,99.90
2019-04-07T21:40:28.900Z,99.90
2019-04-07T21:43:25.846Z,99.90
2019-04-07T21:46:15.349Z,99.90
2019-04-07T21:48:51.129Z,99.90
2019-04-07T21:51:37.741Z,99.90
2019-04-07T21:54:38.979Z,99.90
2019-04-07T21:57:14.055Z,99.90
2019-04-07T21:59:54.877Z,99.90
2019-04-07T22:03:00.051Z,99.90
2019-04-07T22:05:43.610Z,99.90
2019-04-07T22:08:20.047Z,99.90
2019-04-07T22:10:50.355Z,99.90
2019-04-07T22:13:17.110Z,99.90
2019-04-07T22:15:49.349Z,99.90
2019-04-07T22:18:14.320Z,99.90
2019-04-07T22:20:41.341Z,99.90
2019-04-07T22:23:10.017Z,99.90
2019-04-07T22:25:49.023Z,99.90
2019-04-07T22:28:16.314Z,99.90
2019-04-07T22:30:44.721Z,99.90
2019-04-07T22:33:12.430Z,99.90
2019-04-07T22:35:42.524Z,99.90
2019-04-07T22:38:11.390Z,99.90
2019-04-07T22:40:39.222Z,99.90
2019-04-07T22:43:07.342Z,99.90
2019-04-07T22:45:35.105Z,99.90
2019-04-07T22:48:03.507Z,99.90
2019-04-07T22:50:35.483Z,99.90
2019-04-07T22:52:59.923Z,99.90
2019-04-07T22:55:27.572Z,99.90
2019-04-07T22:57:55.784Z,99.90
2019-04-07T23:00:24.445Z,99.90
2019-04-07T23:02:52.064Z,99.90
2019-04-07T23:05:19.221Z,99.90
2019-04-07T23:07:46.719Z,99.90
2019-04-07T23:10:16.017Z,99.90
2019-04-07T23:12:43.267Z,99.90
2019-04-07T23:15:11.176Z,99.90
2019-04-07T23:17:38.465Z,99.90
2019-04-07T23:20:06.526Z,99.90
2019-04-07T23:22:34.073Z,99.90
2019-04-07T23:25:01.708Z,99.90
2019-04-07T23:27:29.707Z,99.90
2019-04-07T23:29:57.354Z,99.90
2019-04-07T23:32:25.498Z,99.90
2019-04-07T23:34:52.793Z,99.90
2019-04-07T23:37:22.090Z,99.90
2019-04-07T23:39:49.672Z,99.90
2019-04-07T23:42:17.201Z,99.90
2019-04-07T23:44:44.395Z,99.90
2019-04-07T23:47:11.687Z,99.90
2019-04-07T23:49:39.382Z,99.90
2019-04-07T23:52:08.945Z,99.90
2019-04-07T23:54:36.434Z,99.90
2019-04-07T23:57:07.053Z,99.90
2019-04-07T23:59:34.976Z,99.90
